East Mansfield, Massachusetts
Current Conditions -  °F | °C
As of 3:53 PM on Monday 24 Nov 2014 (Local Time) from KOWD Reporting Station
Overcast Overcast  
Wind Chill: 64°   Ceiling: 1700
Heat Index: 64°   Visibility: 10mi
Dew Point: 60°   Wind: 13mph
Humidity: 87%   Direction: 200°SSW
Pressure: 29.6"   Gusts: 25mph
Location:  42.02°N, 71.18°W
Report Text: KOWD 242053Z 20011G22KT 10SM BKN017 OVC025 18/16 A2960 RMK AO2 SLP024 60000 T01780156 56011
Loading
Personal Weather Stations






























Interactive Weather Map New forecast layout! Learn more

10-Day Weather Forecast

Advertisements
Track Severe Weather on mobile